SHT2B EGLL-EGCC
Flight info
| Callsign | SHT2B |
|---|---|
| Flight time | 0h 40m |
| Altitude | 18000 |
| Route | ULTIB T420 ELVOS |
| Aircraft | A319/M-SDE3FGHIRWY/LB1 |
Departure
| Time | 2026-05-05 19:42 |
|---|---|
| Airport | London Heathrow Airport (EGLL) |
Arrival
| Time | 2026-05-05 20:22 |
|---|---|
| Airport | Manchester Airport (EGCC) |
| Time | Latitude | Longitude | Altitude | Speed | Heading |
|---|---|---|---|---|---|
| 2026-05-05 19:06 | 51.46932 | -0.48650 | 86 ft | 0 kts | 360° |
| 2026-05-05 19:26 | 51.46920 | -0.48650 | 90 ft | 4 kts | 360° |
| 2026-05-05 19:27 | 51.46899 | -0.48649 | 90 ft | 4 kts | 349° |
| 2026-05-05 19:27 | 51.46879 | -0.48633 | 87 ft | 4 kts | 290° |
| 2026-05-05 19:27 | 51.46876 | -0.48605 | 88 ft | 0 kts | 270° |
| 2026-05-05 19:32 | 51.46876 | -0.48610 | 88 ft | 2 kts | 270° |
| 2026-05-05 19:32 | 51.46877 | -0.48654 | 90 ft | 5 kts | 271° |
| 2026-05-05 19:32 | 51.46876 | -0.48725 | 86 ft | 7 kts | 261° |
| 2026-05-05 19:32 | 51.46833 | -0.48749 | 86 ft | 8 kts | 181° |
| 2026-05-05 19:33 | 51.46808 | -0.48750 | 86 ft | 0 kts | 180° |
| 2026-05-05 19:33 | 51.46807 | -0.48750 | 86 ft | 0 kts | 180° |
| 2026-05-05 19:34 | 51.46806 | -0.48750 | 86 ft | 1 kts | 180° |
| 2026-05-05 19:34 | 51.46765 | -0.48750 | 86 ft | 9 kts | 180° |
| 2026-05-05 19:35 | 51.46706 | -0.48749 | 86 ft | 7 kts | 179° |
| 2026-05-05 19:35 | 51.46635 | -0.48749 | 86 ft | 11 kts | 186° |
| 2026-05-05 19:35 | 51.46597 | -0.48768 | 88 ft | 0 kts | 200° |
| 2026-05-05 19:37 | 51.46594 | -0.48770 | 88 ft | 2 kts | 200° |
| 2026-05-05 19:37 | 51.46533 | -0.48784 | 89 ft | 18 kts | 171° |
| 2026-05-05 19:38 | 51.46478 | -0.48628 | 86 ft | 8 kts | 89° |
| 2026-05-05 19:38 | 51.46478 | -0.48625 | 86 ft | 0 kts | 89° |
| 2026-05-05 19:41 | 51.46478 | -0.48581 | 86 ft | 20 kts | 89° |
| 2026-05-05 19:41 | 51.46481 | -0.48012 | 87 ft | 82 kts | 90° |
| 2026-05-05 19:41 | 51.46485 | -0.46786 | 89 ft | 136 kts | 89° |
| 2026-05-05 19:42 | 51.46483 | -0.45073 | 421 ft | 156 kts | 88° |
| 2026-05-05 19:42 | 51.46495 | -0.43341 | 1130 ft | 156 kts | 88° |
| 2026-05-05 19:42 | 51.46585 | -0.41732 | 1516 ft | 145 kts | 72° |
| 2026-05-05 19:42 | 51.47104 | -0.40208 | 1812 ft | 169 kts | 50° |
| 2026-05-05 19:43 | 51.47903 | -0.38655 | 2174 ft | 192 kts | 50° |
| 2026-05-05 19:43 | 51.48793 | -0.36895 | 2603 ft | 213 kts | 50° |
| 2026-05-05 19:43 | 51.49769 | -0.34961 | 3209 ft | 229 kts | 50° |
| 2026-05-05 19:43 | 51.50779 | -0.32950 | 4120 ft | 236 kts | 50° |
| 2026-05-05 19:44 | 51.51851 | -0.30809 | 4864 ft | 253 kts | 51° |
| 2026-05-05 19:44 | 51.52703 | -0.28260 | 5670 ft | 271 kts | 68° |
| 2026-05-05 19:44 | 51.53373 | -0.25228 | 5945 ft | 305 kts | 69° |
| 2026-05-05 19:44 | 51.54077 | -0.21944 | 5999 ft | 306 kts | 68° |
| 2026-05-05 19:45 | 51.55225 | -0.19211 | 6019 ft | 302 kts | 38° |
| 2026-05-05 19:45 | 51.57194 | -0.17801 | 6291 ft | 315 kts | 8° |
| 2026-05-05 19:45 | 51.59258 | -0.18165 | 6542 ft | 288 kts | 336° |
| 2026-05-05 19:45 | 51.60754 | -0.20125 | 7427 ft | 276 kts | 311° |
| 2026-05-05 19:46 | 51.61883 | -0.22606 | 8522 ft | 275 kts | 305° |
| 2026-05-05 19:46 | 51.63053 | -0.25049 | 9504 ft | 278 kts | 317° |
| 2026-05-05 19:46 | 51.64679 | -0.26768 | 10296 ft | 287 kts | 331° |
| 2026-05-05 19:46 | 51.66505 | -0.28364 | 10605 ft | 311 kts | 330° |
| 2026-05-05 19:47 | 51.68440 | -0.30148 | 11097 ft | 326 kts | 329° |
| 2026-05-05 19:47 | 51.70405 | -0.32032 | 11815 ft | 332 kts | 329° |
| 2026-05-05 19:47 | 51.72400 | -0.33974 | 12588 ft | 337 kts | 328° |
| 2026-05-05 19:47 | 51.74421 | -0.35948 | 13361 ft | 341 kts | 328° |
| 2026-05-05 19:48 | 51.76464 | -0.37945 | 14106 ft | 345 kts | 328° |
| 2026-05-05 19:48 | 51.78511 | -0.39941 | 14707 ft | 350 kts | 328° |
| 2026-05-05 19:48 | 51.80612 | -0.41984 | 15377 ft | 354 kts | 328° |
| 2026-05-05 19:48 | 51.82740 | -0.44048 | 16038 ft | 359 kts | 328° |
| 2026-05-05 19:49 | 51.84894 | -0.46138 | 16698 ft | 363 kts | 328° |
| 2026-05-05 19:49 | 51.86335 | -0.47538 | 17142 ft | 366 kts | 328° |
| 2026-05-05 19:49 | 51.89284 | -0.50402 | 17845 ft | 372 kts | 327° |
| 2026-05-05 19:49 | 51.91514 | -0.52574 | 17960 ft | 376 kts | 328° |
| 2026-05-05 19:50 | 51.93773 | -0.54774 | 17975 ft | 381 kts | 328° |
| 2026-05-05 19:50 | 51.96045 | -0.56985 | 17974 ft | 382 kts | 328° |
| 2026-05-05 19:50 | 51.98319 | -0.59203 | 17972 ft | 382 kts | 327° |
| 2026-05-05 19:50 | 52.00598 | -0.61434 | 17974 ft | 382 kts | 327° |
| 2026-05-05 19:51 | 52.02873 | -0.63666 | 17973 ft | 382 kts | 327° |
| 2026-05-05 19:51 | 52.05145 | -0.65901 | 17975 ft | 382 kts | 328° |
| 2026-05-05 19:51 | 52.07421 | -0.68144 | 17972 ft | 382 kts | 328° |
| 2026-05-05 19:51 | 52.09699 | -0.70386 | 17978 ft | 382 kts | 328° |
| 2026-05-05 19:52 | 52.11972 | -0.72625 | 17979 ft | 383 kts | 327° |
| 2026-05-05 19:52 | 52.14253 | -0.74871 | 17980 ft | 383 kts | 327° |
| 2026-05-05 19:52 | 52.16533 | -0.77122 | 17981 ft | 383 kts | 328° |
| 2026-05-05 19:52 | 52.18811 | -0.79374 | 17986 ft | 383 kts | 327° |
| 2026-05-05 19:53 | 52.21088 | -0.81630 | 17988 ft | 383 kts | 327° |
| 2026-05-05 19:53 | 52.23367 | -0.83890 | 17990 ft | 383 kts | 327° |
| 2026-05-05 19:53 | 52.25648 | -0.86151 | 17992 ft | 383 kts | 327° |
| 2026-05-05 19:53 | 52.27924 | -0.88409 | 17993 ft | 384 kts | 327° |
| 2026-05-05 19:54 | 52.30209 | -0.90673 | 18009 ft | 383 kts | 327° |
| 2026-05-05 19:54 | 52.32489 | -0.92935 | 18009 ft | 383 kts | 327° |
| 2026-05-05 19:54 | 52.34735 | -0.95171 | 18020 ft | 383 kts | 327° |
| 2026-05-05 19:54 | 52.37006 | -0.97436 | 18019 ft | 383 kts | 326° |
| 2026-05-05 19:55 | 52.39286 | -0.99710 | 18029 ft | 382 kts | 327° |
| 2026-05-05 19:55 | 52.41554 | -1.01976 | 18033 ft | 381 kts | 326° |
| 2026-05-05 19:55 | 52.43813 | -1.04241 | 18027 ft | 380 kts | 327° |
| 2026-05-05 19:55 | 52.46067 | -1.06502 | 18027 ft | 380 kts | 327° |
| 2026-05-05 19:56 | 52.48317 | -1.08760 | 18029 ft | 379 kts | 327° |
| 2026-05-05 19:56 | 52.50567 | -1.11023 | 18028 ft | 379 kts | 327° |
| 2026-05-05 19:56 | 52.52808 | -1.13283 | 18033 ft | 378 kts | 327° |
| 2026-05-05 19:56 | 52.55054 | -1.15547 | 18031 ft | 378 kts | 326° |
| 2026-05-05 19:57 | 52.57295 | -1.17803 | 18029 ft | 377 kts | 326° |
| 2026-05-05 19:57 | 52.58776 | -1.19295 | 18026 ft | 377 kts | 326° |
| 2026-05-05 19:57 | 52.61767 | -1.22314 | 18019 ft | 377 kts | 326° |
| 2026-05-05 19:57 | 52.64000 | -1.24572 | 18016 ft | 377 kts | 326° |
| 2026-05-05 19:58 | 52.66231 | -1.26832 | 18016 ft | 376 kts | 326° |
| 2026-05-05 19:58 | 52.68462 | -1.29097 | 18015 ft | 376 kts | 327° |
| 2026-05-05 19:58 | 52.70694 | -1.31364 | 18014 ft | 377 kts | 326° |
| 2026-05-05 19:58 | 52.72923 | -1.33629 | 18012 ft | 377 kts | 326° |
| 2026-05-05 19:59 | 52.75154 | -1.35901 | 18039 ft | 377 kts | 326° |
| 2026-05-05 19:59 | 52.77385 | -1.38176 | 18039 ft | 375 kts | 326° |
| 2026-05-05 19:59 | 52.79571 | -1.40406 | 17769 ft | 364 kts | 326° |
| 2026-05-05 19:59 | 52.81697 | -1.42576 | 17499 ft | 356 kts | 326° |
| 2026-05-05 20:00 | 52.83786 | -1.44712 | 17229 ft | 352 kts | 326° |
| 2026-05-05 20:00 | 52.85869 | -1.46848 | 16966 ft | 352 kts | 326° |
| 2026-05-05 20:00 | 52.87940 | -1.48978 | 16701 ft | 348 kts | 326° |
| 2026-05-05 20:00 | 52.89975 | -1.51073 | 16290 ft | 342 kts | 326° |
| 2026-05-05 20:01 | 52.91983 | -1.53142 | 15833 ft | 338 kts | 326° |
| 2026-05-05 20:01 | 52.93967 | -1.55186 | 15360 ft | 334 kts | 327° |
| 2026-05-05 20:01 | 52.95932 | -1.57209 | 14890 ft | 331 kts | 327° |
| 2026-05-05 20:01 | 52.97876 | -1.59212 | 14425 ft | 328 kts | 327° |
| 2026-05-05 20:02 | 52.99800 | -1.61199 | 13970 ft | 325 kts | 327° |
| 2026-05-05 20:02 | 53.01067 | -1.62508 | 13641 ft | 323 kts | 327° |
| 2026-05-05 20:02 | 53.02964 | -1.64469 | 13159 ft | 319 kts | 327° |
| 2026-05-05 20:02 | 53.04812 | -1.66469 | 12703 ft | 315 kts | 322° |
| 2026-05-05 20:03 | 53.06394 | -1.68925 | 12410 ft | 306 kts | 311° |
| 2026-05-05 20:03 | 53.07749 | -1.71567 | 12279 ft | 294 kts | 310° |
| 2026-05-05 20:03 | 53.09060 | -1.74106 | 12056 ft | 286 kts | 310° |
| 2026-05-05 20:03 | 53.10353 | -1.76604 | 11802 ft | 284 kts | 310° |
| 2026-05-05 20:04 | 53.11637 | -1.79088 | 11545 ft | 281 kts | 311° |
| 2026-05-05 20:04 | 53.12911 | -1.81557 | 11215 ft | 282 kts | 311° |
| 2026-05-05 20:04 | 53.14193 | -1.84044 | 10754 ft | 285 kts | 311° |
| 2026-05-05 20:04 | 53.15479 | -1.86542 | 10454 ft | 280 kts | 311° |
| 2026-05-05 20:05 | 53.16739 | -1.88994 | 10117 ft | 278 kts | 311° |
| 2026-05-05 20:05 | 53.17985 | -1.91419 | 9689 ft | 279 kts | 311° |
| 2026-05-05 20:05 | 53.19244 | -1.93875 | 9340 ft | 276 kts | 311° |
| 2026-05-05 20:05 | 53.20488 | -1.96307 | 8959 ft | 274 kts | 311° |
| 2026-05-05 20:06 | 53.21706 | -1.98688 | 8820 ft | 265 kts | 311° |
| 2026-05-05 20:06 | 53.22879 | -2.00981 | 8688 ft | 256 kts | 311° |
| 2026-05-05 20:06 | 53.24017 | -2.03214 | 8474 ft | 250 kts | 311° |
| 2026-05-05 20:06 | 53.25142 | -2.05418 | 8189 ft | 249 kts | 310° |
| 2026-05-05 20:07 | 53.26283 | -2.07656 | 7843 ft | 250 kts | 310° |
| 2026-05-05 20:07 | 53.27391 | -2.09832 | 7586 ft | 248 kts | 310° |
| 2026-05-05 20:07 | 53.28505 | -2.12024 | 7325 ft | 247 kts | 310° |
| 2026-05-05 20:07 | 53.29617 | -2.14210 | 7131 ft | 247 kts | 310° |
| 2026-05-05 20:08 | 53.30729 | -2.16404 | 6952 ft | 247 kts | 310° |
| 2026-05-05 20:08 | 53.31838 | -2.18593 | 6770 ft | 245 kts | 310° |
| 2026-05-05 20:08 | 53.32941 | -2.20772 | 6595 ft | 245 kts | 310° |
| 2026-05-05 20:08 | 53.34024 | -2.22918 | 6474 ft | 237 kts | 308° |
| 2026-05-05 20:09 | 53.34739 | -2.25294 | 6360 ft | 225 kts | 281° |
| 2026-05-05 20:09 | 53.34675 | -2.27825 | 6234 ft | 216 kts | 252° |
| 2026-05-05 20:09 | 53.33937 | -2.29979 | 6081 ft | 214 kts | 232° |
| 2026-05-05 20:09 | 53.33010 | -2.31937 | 5918 ft | 215 kts | 232° |
| 2026-05-05 20:10 | 53.32082 | -2.33899 | 5776 ft | 215 kts | 232° |
| 2026-05-05 20:10 | 53.31167 | -2.35830 | 5619 ft | 214 kts | 232° |
| 2026-05-05 20:10 | 53.30243 | -2.37781 | 5459 ft | 214 kts | 232° |
| 2026-05-05 20:10 | 53.29320 | -2.39723 | 5300 ft | 214 kts | 232° |
| 2026-05-05 20:11 | 53.28397 | -2.41666 | 5143 ft | 212 kts | 232° |
| 2026-05-05 20:11 | 53.27508 | -2.43539 | 4998 ft | 197 kts | 232° |
| 2026-05-05 20:11 | 53.26698 | -2.45245 | 4868 ft | 180 kts | 232° |
| 2026-05-05 20:11 | 53.25938 | -2.46844 | 4741 ft | 173 kts | 232° |
| 2026-05-05 20:12 | 53.25183 | -2.48407 | 4608 ft | 173 kts | 227° |
| 2026-05-05 20:12 | 53.24257 | -2.49677 | 4483 ft | 173 kts | 210° |
| 2026-05-05 20:12 | 53.23153 | -2.50474 | 4362 ft | 176 kts | 194° |
| 2026-05-05 20:12 | 53.21886 | -2.50792 | 4245 ft | 190 kts | 182° |
| 2026-05-05 20:13 | 53.20560 | -2.51031 | 4099 ft | 192 kts | 183° |
| 2026-05-05 20:13 | 53.19229 | -2.51279 | 3959 ft | 193 kts | 183° |
| 2026-05-05 20:13 | 53.17897 | -2.51526 | 3822 ft | 192 kts | 182° |
| 2026-05-05 20:13 | 53.16577 | -2.51870 | 3705 ft | 193 kts | 195° |
| 2026-05-05 20:14 | 53.15413 | -2.52990 | 3666 ft | 197 kts | 221° |
| 2026-05-05 20:14 | 53.14643 | -2.54868 | 3617 ft | 199 kts | 248° |
| 2026-05-05 20:14 | 53.14444 | -2.57105 | 3575 ft | 193 kts | 276° |
| 2026-05-05 20:14 | 53.14826 | -2.59200 | 3530 ft | 188 kts | 302° |
| 2026-05-05 20:15 | 53.15678 | -2.60804 | 3495 ft | 185 kts | 326° |
| 2026-05-05 20:15 | 53.16822 | -2.61676 | 3448 ft | 180 kts | 349° |
| 2026-05-05 20:15 | 53.18062 | -2.61708 | 3408 ft | 177 kts | 12° |
| 2026-05-05 20:15 | 53.19141 | -2.60784 | 3362 ft | 178 kts | 42° |
| 2026-05-05 20:16 | 53.19940 | -2.59209 | 3334 ft | 178 kts | 50° |
| 2026-05-05 20:16 | 53.20724 | -2.57604 | 3293 ft | 177 kts | 50° |
| 2026-05-05 20:16 | 53.21494 | -2.56028 | 3254 ft | 176 kts | 50° |
| 2026-05-05 20:16 | 53.22269 | -2.54444 | 3214 ft | 177 kts | 52° |
| 2026-05-05 20:17 | 53.23043 | -2.52860 | 3129 ft | 176 kts | 52° |
| 2026-05-05 20:17 | 53.23806 | -2.51300 | 3042 ft | 169 kts | 53° |
| 2026-05-05 20:17 | 53.24516 | -2.49848 | 3028 ft | 156 kts | 52° |
| 2026-05-05 20:17 | 53.25193 | -2.48460 | 3031 ft | 154 kts | 53° |
| 2026-05-05 20:18 | 53.25863 | -2.47084 | 2992 ft | 152 kts | 52° |
| 2026-05-05 20:18 | 53.26526 | -2.45723 | 2860 ft | 150 kts | 53° |
| 2026-05-05 20:18 | 53.27181 | -2.44380 | 2676 ft | 148 kts | 52° |
| 2026-05-05 20:18 | 53.27829 | -2.43048 | 2485 ft | 147 kts | 52° |
| 2026-05-05 20:19 | 53.28471 | -2.41729 | 2287 ft | 144 kts | 52° |
| 2026-05-05 20:19 | 53.29096 | -2.40443 | 2086 ft | 138 kts | 52° |
| 2026-05-05 20:19 | 53.29670 | -2.39264 | 1902 ft | 123 kts | 53° |
| 2026-05-05 20:19 | 53.30181 | -2.38214 | 1751 ft | 110 kts | 53° |
| 2026-05-05 20:20 | 53.30637 | -2.37275 | 1582 ft | 98 kts | 52° |
| 2026-05-05 20:20 | 53.31116 | -2.36281 | 1445 ft | 130 kts | 51° |
| 2026-05-05 20:20 | 53.31726 | -2.35052 | 1383 ft | 134 kts | 50° |
| 2026-05-05 20:20 | 53.32339 | -2.33839 | 1237 ft | 145 kts | 53° |
| 2026-05-05 20:21 | 53.32952 | -2.32562 | 1053 ft | 134 kts | 52° |
| 2026-05-05 20:21 | 53.33514 | -2.31355 | 692 ft | 125 kts | 53° |
| 2026-05-05 20:21 | 53.34050 | -2.30250 | 541 ft | 123 kts | 51° |
| 2026-05-05 20:21 | 53.34568 | -2.29163 | 359 ft | 114 kts | 52° |
| 2026-05-05 20:22 | 53.35056 | -2.28156 | 262 ft | 103 kts | 52° |
| 2026-05-05 20:22 | 53.35429 | -2.27383 | 246 ft | 62 kts | 51° |
| 2026-05-05 20:22 | 53.35578 | -2.27076 | 240 ft | 13 kts | 47° |
| 2026-05-05 20:22 | 53.35655 | -2.27125 | 240 ft | 10 kts | 315° |
| 2026-05-05 20:23 | 53.35698 | -2.27185 | 240 ft | 0 kts | 322° |
| 2026-05-05 20:23 | 53.35699 | -2.27187 | 240 ft | 1 kts | 322° |